createdAt,value
2018-12-04T00:00:01.441Z,99859.00
2018-12-04T00:02:30.962Z,99858.34
2018-12-04T00:05:00.588Z,99857.67
2018-12-04T00:07:30.145Z,99847.70
2018-12-04T00:09:59.705Z,99840.68
2018-12-04T00:12:29.265Z,99841.70
2018-12-04T00:14:58.789Z,99841.52
2018-12-04T00:17:28.278Z,99841.20
2018-12-04T00:19:57.894Z,99843.72
2018-12-04T00:22:27.465Z,99845.36
2018-12-04T00:24:57.021Z,99845.05
2018-12-04T00:27:26.546Z,99851.20
2018-12-04T00:29:56.024Z,99845.05
2018-12-04T00:32:25.554Z,99844.38
2018-12-04T00:34:55.128Z,99835.39
2018-12-04T00:37:24.701Z,99836.72
2018-12-04T00:39:54.181Z,99838.70
2018-12-04T00:42:23.668Z,99842.04
2018-12-04T00:44:53.177Z,99837.05
2018-12-04T00:47:22.737Z,99842.39
2018-12-04T00:49:52.253Z,99843.37
2018-12-04T00:52:21.793Z,99838.19
2018-12-04T00:54:51.333Z,99844.70
2018-12-04T00:57:20.830Z,99836.38
2018-12-04T00:59:50.393Z,99838.02
2018-12-04T01:02:20.007Z,99833.19
2018-12-04T01:04:49.628Z,99838.69
2018-12-04T01:07:19.210Z,99834.69
2018-12-04T01:09:48.734Z,99831.20
2018-12-04T01:12:18.332Z,99832.69
2018-12-04T01:14:47.860Z,99831.36
2018-12-04T01:17:17.373Z,99830.38
2018-12-04T01:19:46.846Z,99825.72
2018-12-04T01:22:16.368Z,99826.03
2018-12-04T01:24:45.864Z,99822.38
2018-12-04T01:27:15.408Z,99817.72
2018-12-04T01:29:44.905Z,99818.20
2018-12-04T01:32:14.421Z,99827.72
2018-12-04T01:34:43.947Z,99825.91
2018-12-04T01:37:13.453Z,99829.08
2018-12-04T01:39:42.960Z,99827.39
2018-12-04T01:42:13.386Z,99826.39
2018-12-04T01:44:42.885Z,99819.52
2018-12-04T01:47:12.481Z,99814.53
2018-12-04T01:49:42.034Z,99817.04
2018-12-04T01:52:11.505Z,99812.38
2018-12-04T01:54:41.028Z,99802.37
2018-12-04T01:57:10.532Z,99810.18
2018-12-04T01:59:40.037Z,99799.05
2018-12-04T02:02:09.548Z,99799.20
2018-12-04T02:04:39.054Z,99798.84
2018-12-04T02:07:08.560Z,99772.02
2018-12-04T02:09:38.390Z,99790.36
2018-12-04T02:12:07.921Z,99780.16
2018-12-04T02:14:37.464Z,99781.69
2018-12-04T02:17:06.937Z,99786.36
2018-12-04T02:19:36.441Z,99790.38
2018-12-04T02:22:05.970Z,99777.70
2018-12-04T02:24:35.504Z,99781.21
2018-12-04T02:27:05.035Z,99774.90
2018-12-04T02:29:34.541Z,99780.71
2018-12-04T02:32:04.024Z,99779.38
2018-12-04T02:34:33.559Z,99762.92
2018-12-04T02:37:03.046Z,99762.25
2018-12-04T02:39:32.569Z,99757.91
2018-12-04T02:42:02.053Z,99755.91
2018-12-04T02:44:31.561Z,99753.24
2018-12-04T02:47:01.093Z,99756.42
2018-12-04T02:49:30.573Z,99755.76
2018-12-04T02:52:00.109Z,99756.43
2018-12-04T02:54:29.589Z,99753.09
2018-12-04T02:56:59.093Z,99753.77
2018-12-04T02:59:28.560Z,99751.77
2018-12-04T03:01:58.062Z,99745.77
2018-12-04T03:04:27.566Z,99745.11
2018-12-04T03:06:57.117Z,99747.11
2018-12-04T03:09:26.649Z,99750.80
2018-12-04T03:11:56.116Z,99746.13
2018-12-04T03:14:25.621Z,99747.63
2018-12-04T03:16:55.136Z,99743.79
2018-12-04T03:19:24.633Z,99741.48
2018-12-04T03:21:54.137Z,99744.14
2018-12-04T03:24:23.628Z,99738.81
2018-12-04T03:26:53.365Z,99733.98
2018-12-04T03:29:22.841Z,99741.64
2018-12-04T03:31:52.369Z,99746.66
2018-12-04T03:34:21.896Z,99744.47
2018-12-04T03:36:51.432Z,99747.80
2018-12-04T03:39:20.953Z,99752.30
2018-12-04T03:41:50.527Z,99750.81
2018-12-04T03:44:19.997Z,99755.80
2018-12-04T03:46:49.531Z,99754.49
2018-12-04T03:49:19.039Z,99757.98
2018-12-04T03:51:48.576Z,99757.16
2018-12-04T03:54:18.080Z,99764.80
2018-12-04T03:56:47.649Z,99751.16
2018-12-04T03:59:17.127Z,99754.30
2018-12-04T04:01:46.665Z,99763.16
2018-12-04T04:04:16.189Z,99757.83
2018-12-04T04:06:45.739Z,99759.16
2018-12-04T04:09:15.278Z,99755.64
2018-12-04T04:11:44.805Z,99757.48
2018-12-04T04:14:14.318Z,99762.30
2018-12-04T04:16:43.821Z,99765.48
2018-12-04T04:19:13.293Z,99764.30
2018-12-04T04:21:42.800Z,99759.98
2018-12-04T04:24:12.347Z,99761.83
2018-12-04T04:26:41.857Z,99771.16
2018-12-04T04:29:11.340Z,99765.47
2018-12-04T04:31:40.841Z,99769.82
2018-12-04T04:34:10.306Z,99775.31
2018-12-04T04:36:39.851Z,99771.31
2018-12-04T04:39:09.413Z,99773.97
2018-12-04T04:41:39.025Z,99778.80
2018-12-04T04:44:08.504Z,99768.14
2018-12-04T04:46:38.029Z,99766.80
2018-12-04T04:49:07.525Z,99761.63
2018-12-04T04:51:37.053Z,99760.49
2018-12-04T04:54:06.517Z,99764.14
2018-12-04T04:56:36.014Z,99758.49
2018-12-04T04:59:05.550Z,99756.97
2018-12-04T05:01:35.057Z,99754.49
2018-12-04T05:04:04.674Z,99749.83
2018-12-04T05:06:34.197Z,99750.50
2018-12-04T05:09:03.877Z,99748.81
2018-12-04T05:11:33.501Z,99749.83
2018-12-04T05:14:02.981Z,99750.81
2018-12-04T05:16:32.506Z,99754.48
2018-12-04T05:19:02.015Z,99755.47
2018-12-04T05:21:31.530Z,99761.15
2018-12-04T05:24:01.069Z,99765.66
2018-12-04T05:26:30.553Z,99767.14
2018-12-04T05:29:00.085Z,99767.65
2018-12-04T05:31:29.666Z,99757.47
2018-12-04T05:33:59.182Z,99756.48
2018-12-04T05:36:28.708Z,99760.13
2018-12-04T05:38:58.231Z,99756.13
2018-12-04T05:41:27.704Z,99754.80
2018-12-04T05:43:57.208Z,99755.47
2018-12-04T05:46:26.734Z,99760.13
2018-12-04T05:48:56.305Z,99764.63
2018-12-04T05:51:25.829Z,99769.80
2018-12-04T05:53:55.305Z,99774.63
2018-12-04T05:56:24.913Z,99772.63
2018-12-04T05:58:54.417Z,99775.13
2018-12-04T06:01:23.985Z,99774.12
2018-12-04T06:03:53.461Z,99779.13
2018-12-04T06:06:23.049Z,99782.78
2018-12-04T06:08:52.573Z,99785.45
2018-12-04T06:11:22.060Z,99796.11
2018-12-04T06:13:51.632Z,99791.96
2018-12-04T06:16:21.116Z,99658.08
2018-12-04T06:18:50.659Z,99802.95
2018-12-04T06:21:20.204Z,99803.30
2018-12-04T06:23:49.738Z,99807.45
2018-12-04T06:26:19.235Z,99806.62
2018-12-04T06:28:48.837Z,99815.45
2018-12-04T06:31:18.336Z,99807.60
2018-12-04T06:33:47.892Z,99804.92
2018-12-04T06:36:17.790Z,99812.91
2018-12-04T06:38:47.343Z,99810.72
2018-12-04T06:41:16.823Z,99805.38
2018-12-04T06:43:46.320Z,99812.38
2018-12-04T06:46:16.889Z,99817.35
2018-12-04T06:48:46.428Z,99818.37
2018-12-04T06:51:15.941Z,99815.69
2018-12-04T06:53:45.521Z,99816.28
2018-12-04T06:56:15.143Z,99816.58
2018-12-04T06:58:44.622Z,99818.86
2018-12-04T07:01:45.036Z,99823.98
2018-12-04T07:04:14.553Z,99821.05
2018-12-04T07:06:44.061Z,99677.28
2018-12-04T07:09:13.582Z,99818.89
2018-12-04T07:11:43.102Z,99822.14
2018-12-04T07:14:12.589Z,99818.70
2018-12-04T07:16:42.209Z,99821.31
2018-12-04T07:19:11.743Z,99807.42
2018-12-04T07:21:41.620Z,99813.91
2018-12-04T07:24:11.165Z,99820.70
2018-12-04T07:26:40.656Z,99815.45
2018-12-04T07:29:10.168Z,99812.05
2018-12-04T07:31:39.709Z,99812.46
2018-12-04T07:34:09.238Z,99805.05
2018-12-04T07:36:38.849Z,99809.41
2018-12-04T07:39:08.952Z,99816.67
2018-12-04T07:41:38.710Z,99802.42
2018-12-04T07:44:08.236Z,99807.34
2018-12-04T07:46:37.797Z,99799.39
2018-12-04T07:49:07.367Z,99815.63
2018-12-04T07:51:36.943Z,99810.28
2018-12-04T07:54:06.422Z,99806.42
2018-12-04T07:56:35.989Z,99814.47
2018-12-04T07:59:05.513Z,99809.83
2018-12-04T08:01:35.025Z,99809.53
2018-12-04T08:04:04.617Z,99814.78
2018-12-04T08:06:34.143Z,99814.33
2018-12-04T08:09:05.753Z,99816.24
2018-12-04T08:11:35.300Z,99819.75
2018-12-04T08:14:05.009Z,99813.68
2018-12-04T08:16:34.724Z,99818.22
2018-12-04T08:19:04.804Z,99815.59
2018-12-04T08:21:35.044Z,99815.03
2018-12-04T08:24:04.697Z,99813.47
2018-12-04T08:26:35.161Z,99806.52
2018-12-04T08:29:04.683Z,99808.49
2018-12-04T08:31:34.166Z,99808.54
2018-12-04T08:34:03.711Z,99806.23
2018-12-04T08:36:33.270Z,99806.61
2018-12-04T08:39:02.748Z,99810.27
2018-12-04T08:41:32.272Z,99810.20
2018-12-04T08:44:01.776Z,99811.80
2018-12-04T08:46:31.277Z,99813.10
2018-12-04T08:49:00.741Z,99816.57
2018-12-04T08:51:30.337Z,99802.27
2018-12-04T08:53:59.885Z,99801.03
2018-12-04T08:56:29.518Z,99795.19
2018-12-04T08:58:59.009Z,99791.09
2018-12-04T09:01:28.482Z,99778.97
2018-12-04T09:03:59.317Z,99782.11
2018-12-04T09:06:33.048Z,99778.88
2018-12-04T09:09:02.709Z,99770.30
2018-12-04T09:11:32.185Z,99767.84
2018-12-04T09:14:01.716Z,99769.20
2018-12-04T09:16:31.265Z,99756.83
2018-12-04T09:19:00.764Z,99748.23
2018-12-04T09:21:30.281Z,99750.73
2018-12-04T09:23:59.861Z,99749.48
2018-12-04T09:26:29.557Z,99746.41
2018-12-04T09:28:59.243Z,99742.26
2018-12-04T09:31:28.857Z,99737.91
2018-12-04T09:33:58.401Z,99735.63
2018-12-04T09:36:27.973Z,99732.39
2018-12-04T09:38:57.440Z,99730.43
2018-12-04T09:41:26.976Z,99727.77
2018-12-04T09:43:56.445Z,99724.64
2018-12-04T09:46:26.096Z,99717.08
2018-12-04T09:48:55.601Z,99710.23
2018-12-04T09:51:25.187Z,99601.03
2018-12-04T09:53:54.764Z,99710.95
2018-12-04T09:56:24.232Z,99705.66
2018-12-04T09:58:53.733Z,99700.08
2018-12-04T10:01:23.206Z,99700.14
2018-12-04T10:03:52.716Z,99687.79
2018-12-04T10:06:22.189Z,99689.95
2018-12-04T10:08:51.715Z,99690.25
2018-12-04T10:11:21.254Z,99686.17
2018-12-04T10:13:50.758Z,99686.14
2018-12-04T10:16:20.269Z,99677.82
2018-12-04T10:18:49.722Z,99666.75
2018-12-04T10:21:19.188Z,99665.28
2018-12-04T10:23:48.725Z,99666.18
2018-12-04T10:26:18.229Z,99664.63
2018-12-04T10:28:47.712Z,99659.03
2018-12-04T10:31:17.240Z,99652.58
2018-12-04T10:33:46.749Z,99656.78
2018-12-04T10:36:16.295Z,99648.45
2018-12-04T10:38:45.761Z,99653.67
2018-12-04T10:41:15.297Z,99655.84
2018-12-04T10:43:44.842Z,99652.69
2018-12-04T10:46:14.988Z,99645.57
2018-12-04T10:48:44.470Z,99646.38
2018-12-04T10:51:13.938Z,99642.94
2018-12-04T10:53:43.546Z,99634.80
2018-12-04T10:56:13.009Z,99635.34
2018-12-04T10:58:42.508Z,99631.77
2018-12-04T11:01:17.149Z,99622.40
2018-12-04T11:03:46.699Z,99620.58
2018-12-04T11:06:16.255Z,99623.47
2018-12-04T11:08:45.819Z,99626.92
2018-12-04T11:11:15.357Z,99619.32
2018-12-04T11:13:44.818Z,99618.75
2018-12-04T11:16:14.337Z,99625.12
2018-12-04T11:18:43.849Z,99623.34
2018-12-04T11:21:13.301Z,99614.71
2018-12-04T11:23:42.830Z,99606.33
2018-12-04T11:26:12.437Z,99610.98
2018-12-04T11:28:41.954Z,99602.44
2018-12-04T11:31:11.405Z,99600.05
2018-12-04T11:33:40.910Z,99594.32
2018-12-04T11:36:10.496Z,99602.97
2018-12-04T11:38:39.950Z,99606.94
2018-12-04T11:41:09.506Z,99605.56
2018-12-04T11:43:38.953Z,99597.33
2018-12-04T11:46:08.482Z,99591.09
2018-12-04T11:48:38.398Z,99591.59
2018-12-04T11:51:07.910Z,99583.44
2018-12-04T11:56:16.229Z,99578.17
2018-12-04T11:58:46.225Z,99575.44
2018-12-04T12:01:19.813Z,99571.29
2018-12-04T12:03:49.408Z,99560.16
2018-12-04T12:06:18.909Z,99557.34
2018-12-04T12:08:48.385Z,99561.61
2018-12-04T12:11:17.914Z,99556.52
2018-12-04T12:13:47.578Z,99558.91
2018-12-04T12:16:17.179Z,99557.77
2018-12-04T12:18:46.648Z,99558.31
2018-12-04T12:21:16.203Z,99556.69
2018-12-04T12:23:45.693Z,99563.28
2018-12-04T12:26:15.192Z,99567.33
2018-12-04T12:28:44.722Z,99568.16
2018-12-04T12:31:14.329Z,99568.58
2018-12-04T12:33:43.800Z,99572.70
2018-12-04T12:36:13.309Z,99335.52
2018-12-04T12:38:42.875Z,99569.29
2018-12-04T12:41:12.501Z,99571.46
2018-12-04T12:43:41.961Z,99576.81
2018-12-04T12:46:11.629Z,99565.99
2018-12-04T12:48:41.244Z,99566.81
2018-12-04T12:51:10.777Z,99565.29
2018-12-04T12:53:40.277Z,99569.66
2018-12-04T12:56:09.777Z,99571.23
2018-12-04T12:58:39.260Z,99569.06
2018-12-04T13:01:08.782Z,99574.84
2018-12-04T13:03:38.271Z,99565.44
2018-12-04T13:06:07.765Z,99559.27
2018-12-04T13:08:37.216Z,99560.67
2018-12-04T13:11:06.732Z,99556.67
2018-12-04T13:13:36.964Z,99558.56
2018-12-04T13:16:06.687Z,99560.45
2018-12-04T13:18:36.177Z,99565.55
2018-12-04T13:21:05.645Z,99563.69
2018-12-04T13:23:35.152Z,99570.91
2018-12-04T13:26:04.641Z,99571.12
2018-12-04T13:28:34.094Z,99575.50
2018-12-04T13:31:03.585Z,99569.49
2018-12-04T13:33:33.058Z,99573.41
2018-12-04T13:36:02.680Z,99567.66
2018-12-04T13:38:32.157Z,99575.99
2018-12-04T13:41:01.697Z,99570.30
2018-12-04T13:43:31.187Z,99570.53
2018-12-04T13:46:00.721Z,99564.58
2018-12-04T13:48:30.316Z,99570.47
2018-12-04T13:50:59.808Z,99570.91
2018-12-04T13:53:29.298Z,99497.86
2018-12-04T13:55:58.749Z,99570.04
2018-12-04T13:58:28.326Z,99567.55
2018-12-04T14:00:57.824Z,99564.48
2018-12-04T14:03:27.333Z,99564.95
2018-12-04T14:05:56.862Z,99561.81
2018-12-04T14:08:26.378Z,99566.31
2018-12-04T14:10:55.897Z,99565.06
2018-12-04T14:13:25.391Z,99569.59
2018-12-04T14:15:56.883Z,99563.97
2018-12-04T14:18:26.467Z,99566.83
2018-12-04T14:20:55.962Z,99569.09
2018-12-04T14:23:27.856Z,99575.47
2018-12-04T14:25:57.384Z,99576.47
2018-12-04T14:28:27.072Z,99576.31
2018-12-04T14:30:56.711Z,99583.81
2018-12-04T14:33:26.243Z,99581.86
2018-12-04T14:35:55.874Z,99585.56
2018-12-04T14:38:25.388Z,99584.37
2018-12-04T14:40:54.875Z,99586.97
2018-12-04T14:43:24.370Z,99589.00
2018-12-04T14:45:53.962Z,99588.33
2018-12-04T14:48:23.524Z,99563.95
2018-12-04T14:50:53.086Z,99588.34
2018-12-04T14:53:22.576Z,99587.89
2018-12-04T14:55:52.130Z,99602.81
2018-12-04T14:58:21.597Z,99591.30
2018-12-04T15:00:51.208Z,99592.52
2018-12-04T15:03:20.749Z,99596.10
2018-12-04T15:05:50.386Z,99591.91
2018-12-04T15:08:19.977Z,99593.69
2018-12-04T15:10:49.592Z,99597.05
2018-12-04T15:13:19.306Z,99603.09
2018-12-04T15:15:48.840Z,99605.61
2018-12-04T15:18:18.304Z,99609.50
2018-12-04T15:20:47.918Z,99607.97
2018-12-04T15:23:17.584Z,99613.00
2018-12-04T15:25:47.251Z,99614.23
2018-12-04T15:28:17.072Z,99610.78
2018-12-04T15:30:46.735Z,99613.33
2018-12-04T15:33:16.270Z,99619.66
2018-12-04T15:35:45.880Z,99621.97
2018-12-04T15:38:15.537Z,99622.09
2018-12-04T15:40:45.154Z,99619.45
2018-12-04T15:43:14.761Z,99621.45
2018-12-04T15:45:44.371Z,99623.95
2018-12-04T15:48:13.907Z,99625.42
2018-12-04T15:50:43.529Z,99624.53
2018-12-04T15:53:13.082Z,99621.22
2018-12-04T15:55:42.687Z,99616.27
2018-12-04T15:58:12.208Z,99623.75
2018-12-04T16:00:41.768Z,99615.80
2018-12-04T16:03:11.398Z,99623.47
2018-12-04T16:05:40.918Z,99610.33
2018-12-04T16:08:10.410Z,99619.67
2018-12-04T16:10:39.917Z,99621.47
2018-12-04T16:13:09.541Z,99623.75
2018-12-04T16:15:39.094Z,99628.12
2018-12-04T16:18:08.726Z,99620.24
2018-12-04T16:20:38.217Z,99622.84
2018-12-04T16:23:07.782Z,99621.94
2018-12-04T16:25:37.272Z,99623.17
2018-12-04T16:28:06.729Z,99622.35
2018-12-04T16:30:36.306Z,99625.48
2018-12-04T16:33:05.806Z,99626.95
2018-12-04T16:35:35.298Z,99632.25
2018-12-04T16:38:04.766Z,99631.31
2018-12-04T16:40:34.264Z,99634.33
2018-12-04T16:43:03.737Z,99638.36
2018-12-04T16:45:33.285Z,99645.83
2018-12-04T16:48:02.724Z,99640.12
2018-12-04T16:50:32.220Z,99637.53
2018-12-04T16:53:01.682Z,99639.84
2018-12-04T16:55:31.219Z,99645.11
2018-12-04T16:58:00.718Z,99648.53
2018-12-04T17:00:30.252Z,99650.11
2018-12-04T17:02:59.929Z,99645.66
2018-12-04T17:05:29.398Z,99647.12
2018-12-04T17:07:58.892Z,99648.38
2018-12-04T17:10:28.418Z,99652.28
2018-12-04T17:12:57.916Z,99649.50
2018-12-04T17:15:27.423Z,99644.45
2018-12-04T17:17:57.283Z,99651.59
2018-12-04T17:20:26.781Z,99656.15
2018-12-04T17:22:56.264Z,99661.11
2018-12-04T17:25:25.734Z,99663.52
2018-12-04T17:27:55.244Z,99667.55
2018-12-04T17:30:24.744Z,99668.89
2018-12-04T17:32:54.497Z,99674.67
2018-12-04T17:35:24.009Z,99676.13
2018-12-04T17:37:53.505Z,99685.54
2018-12-04T17:40:22.986Z,99690.30
2018-12-04T17:42:52.556Z,99692.28
2018-12-04T17:45:22.002Z,99684.30
2018-12-04T17:47:51.515Z,99689.98
2018-12-04T17:50:21.013Z,99693.30
2018-12-04T17:52:50.541Z,99692.80
2018-12-04T17:55:20.075Z,99702.22
2018-12-04T17:57:49.574Z,99700.34
2018-12-04T18:00:19.099Z,99701.36
2018-12-04T18:02:48.569Z,99694.34
2018-12-04T18:05:18.141Z,99691.84
2018-12-04T18:07:47.668Z,99691.03
2018-12-04T18:10:17.152Z,99689.16
2018-12-04T18:12:46.641Z,99693.39
2018-12-04T18:15:16.080Z,99689.78
2018-12-04T18:17:45.557Z,99699.62
2018-12-04T18:20:15.012Z,99692.77
2018-12-04T18:22:44.492Z,99691.66
2018-12-04T18:25:13.949Z,99691.03
2018-12-04T18:27:43.440Z,99697.42
2018-12-04T18:30:12.986Z,99699.48
2018-12-04T18:32:42.496Z,99697.72
2018-12-04T18:35:11.983Z,99700.01
2018-12-04T18:37:41.483Z,99701.75
2018-12-04T18:40:10.974Z,99701.84
2018-12-04T18:42:40.497Z,99707.31
2018-12-04T18:45:09.996Z,99723.34
2018-12-04T18:47:39.514Z,99717.04
2018-12-04T18:50:10.596Z,99715.26
2018-12-04T18:52:41.021Z,99719.65
2018-12-04T18:55:12.805Z,99721.11
2018-12-04T18:57:42.288Z,99720.98
2018-12-04T19:00:12.305Z,99722.55
2018-12-04T19:02:41.946Z,99723.27
2018-12-04T19:05:11.485Z,99731.41
2018-12-04T19:07:41.033Z,99722.20
2018-12-04T19:10:10.662Z,99727.47
2018-12-04T19:12:40.229Z,99734.19
2018-12-04T19:15:09.945Z,99735.61
2018-12-04T19:17:39.389Z,99733.64
2018-12-04T19:20:09.492Z,99737.34
2018-12-04T19:22:39.330Z,99745.41
2018-12-04T19:25:09.018Z,99742.09
2018-12-04T19:27:38.481Z,99742.41
2018-12-04T19:30:11.829Z,99742.23
2018-12-04T19:32:41.350Z,99741.70
2018-12-04T19:35:12.696Z,99748.61
2018-12-04T19:37:42.334Z,99749.52
2018-12-04T19:40:12.517Z,99759.17
2018-12-04T19:42:44.845Z,99757.00
2018-12-04T19:45:14.709Z,99748.09
2018-12-04T19:47:44.239Z,99751.00
2018-12-04T19:50:13.744Z,99746.12
2018-12-04T19:52:43.232Z,99752.02
2018-12-04T19:55:12.727Z,99749.93
2018-12-04T19:57:42.322Z,99742.77
2018-12-04T20:00:12.197Z,99752.37
2018-12-04T20:02:41.805Z,99753.41
2018-12-04T20:05:11.297Z,99754.95
2018-12-04T20:07:40.837Z,99757.94
2018-12-04T20:10:10.312Z,99764.39
2018-12-04T20:12:39.801Z,99762.94
2018-12-04T20:15:09.673Z,99765.30
2018-12-04T20:17:39.200Z,99767.88
2018-12-04T20:20:08.708Z,99763.21
2018-12-04T20:22:38.342Z,99764.88
2018-12-04T20:25:08.697Z,99765.59
2018-12-04T20:27:38.207Z,99766.94
2018-12-04T20:30:08.478Z,99769.41
2018-12-04T20:32:38.017Z,99766.08
2018-12-04T20:35:07.729Z,99767.02
2018-12-04T20:37:37.189Z,99771.34
2018-12-04T20:40:07.043Z,99774.10
2018-12-04T20:42:36.529Z,99780.52
2018-12-04T20:45:06.645Z,99769.77
2018-12-04T20:47:36.135Z,99770.08
2018-12-04T20:50:06.601Z,99771.42
2018-12-04T20:52:36.120Z,99772.77
2018-12-04T20:55:08.867Z,99773.47
2018-12-04T20:57:37.379Z,99777.72
2018-12-04T21:00:08.977Z,99772.83
2018-12-04T21:02:38.635Z,99781.41
2018-12-04T21:05:08.300Z,99775.22
2018-12-04T21:07:37.761Z,99782.94
2018-12-04T21:10:07.552Z,99779.62
2018-12-04T21:12:37.005Z,99786.03
2018-12-04T21:15:07.261Z,99788.08
2018-12-04T21:17:36.827Z,99786.92
2018-12-04T21:20:06.360Z,99640.20
2018-12-04T21:22:35.863Z,99788.34
2018-12-04T21:25:05.934Z,99787.70
2018-12-04T21:27:40.442Z,99789.23
2018-12-04T21:30:15.706Z,99785.61
2018-12-04T21:32:50.460Z,99785.30
2018-12-04T21:35:25.129Z,99792.25
2018-12-04T21:40:05.730Z,99789.64
2018-12-04T21:44:44.380Z,99796.28
2018-12-04T21:47:19.053Z,99792.39
2018-12-04T21:49:48.558Z,99800.96
2018-12-04T21:52:18.009Z,99797.08
2018-12-04T21:54:47.506Z,99797.59
2018-12-04T21:57:16.961Z,99790.55
2018-12-04T21:59:46.601Z,99794.98
2018-12-04T22:02:16.081Z,99792.93
2018-12-04T22:04:45.574Z,99795.33
2018-12-04T22:07:15.814Z,99787.28
2018-12-04T22:09:45.336Z,99797.64
2018-12-04T22:12:14.826Z,99786.09
2018-12-04T22:14:44.338Z,99786.31
2018-12-04T22:17:13.797Z,99789.12
2018-12-04T22:19:43.290Z,99788.93
2018-12-04T22:22:12.776Z,99785.20
2018-12-04T22:24:42.353Z,99790.58
2018-12-04T22:27:11.811Z,99789.56
2018-12-04T22:29:41.348Z,99794.30
2018-12-04T22:32:10.813Z,99786.25
2018-12-04T22:34:40.305Z,99794.11
2018-12-04T22:37:09.761Z,99789.45
2018-12-04T22:39:39.244Z,99793.78
2018-12-04T22:42:08.743Z,99794.30
2018-12-04T22:44:38.242Z,99782.92
2018-12-04T22:47:07.836Z,99786.09
2018-12-04T22:49:37.337Z,99782.06
2018-12-04T22:52:06.820Z,99795.78
2018-12-04T22:54:36.326Z,99797.64
2018-12-04T22:57:05.841Z,99800.27
2018-12-04T22:59:35.361Z,99793.94
2018-12-04T23:02:05.125Z,99800.46
2018-12-04T23:04:34.633Z,99799.64
2018-12-04T23:07:04.130Z,99799.00
2018-12-04T23:09:33.629Z,99803.02
2018-12-04T23:12:03.176Z,99798.43
2018-12-04T23:14:33.185Z,99806.14
2018-12-04T23:17:02.877Z,99802.34
2018-12-04T23:19:32.340Z,99807.48
2018-12-04T23:22:01.842Z,99802.64
2018-12-04T23:24:31.393Z,99798.50
2018-12-04T23:27:00.845Z,99804.05
2018-12-04T23:29:30.365Z,99804.93
2018-12-04T23:31:59.834Z,99806.27
2018-12-04T23:34:29.349Z,99804.51
2018-12-04T23:36:58.829Z,99807.55
2018-12-04T23:39:28.334Z,99800.48
2018-12-04T23:41:57.806Z,99810.18
2018-12-04T23:44:27.304Z,99808.59
2018-12-04T23:46:56.805Z,99807.62
2018-12-04T23:49:26.310Z,99808.02
2018-12-04T23:51:55.804Z,99798.23
2018-12-04T23:54:25.300Z,99810.42
2018-12-04T23:56:54.813Z,99817.39
2018-12-04T23:59:24.287Z,99809.41
